Date,TemperatureHighF,TemperatureAvgF,TemperatureLowF,DewpointHighF,DewpointAvgF,DewpointLowF,HumidityHigh,HumidityAvg,HumidityLow,PressureMaxIn,PressureMinIn,WindSpeedMaxMPH,WindSpeedAvgMPH,GustSpeedMaxMPH,PrecipitationSumIn
2013-2-1,67.8,59.0,0.0,37.5,28.6,8.3,48,33,10,30.30,30.15,22,6,22,0.00
2013-2-2,70.0,60.0,0.0,43.8,34.7,14.1,56,39,12,30.24,30.09,19,6,19,0.00
2013-2-3,71.8,62.2,54.5,52.2,44.4,31.2,83,53,33,30.12,30.03,16,3,16,0.00
2013-2-4,69.8,62.1,57.7,52.5,38.9,8.7,80,45,10,30.06,29.97,18,3,18,0.00
2013-2-5,74.8,65.4,55.0,61.2,44.4,27.3,80,49,21,30.03,29.94,17,3,19,0.00
2013-2-6,78.8,69.9,0.0,65.1,57.8,45.8,88,67,33,30.03,29.94,15,2,15,0.00
2013-2-7,80.4,72.8,0.0,72.1,65.6,50.2,96,80,39,29.97,29.80,30,6,30,0.08
2013-2-8,74.3,68.7,0.0,71.7,65.6,60.5,98,90,71,30.03,29.83,22,4,22,0.08
2013-2-9,73.8,66.7,0.0,65.3,55.8,42.5,98,70,33,30.12,30.00,25,6,25,0.08
2013-2-10,81.1,71.3,65.1,63.4,57.4,47.4,88,64,32,30.15,30.06,23,9,25,0.00
2013-2-11,82.2,74.2,68.9,71.4,64.7,55.4,94,75,42,30.12,30.00,20,4,20,0.00
2013-2-12,82.9,76.1,0.0,75.3,72.3,67.5,98,89,60,30.03,29.88,19,4,22,0.00
2013-2-13,82.4,74.2,0.0,76.8,70.1,46.2,98,87,46,29.91,29.77,29,6,29,0.91
2013-2-14,69.1,66.0,63.7,65.2,62.8,46.6,98,90,46,29.97,29.85,19,2,22,0.20
2013-2-15,65.8,62.6,59.4,64.0,54.4,41.2,98,77,43,30.03,29.88,19,3,19,0.04
2013-2-16,67.8,60.9,55.6,55.6,41.5,22.6,89,51,26,30.06,29.88,43,9,46,0.00
2013-2-17,55.9,49.8,43.5,29.2,16.1,6.3,45,27,15,30.27,30.06,34,7,34,0.00
2013-2-18,69.4,55.9,43.3,55.3,29.9,2.4,83,41,12,30.30,30.12,21,7,22,0.00
2013-2-19,77.5,68.4,60.3,67.5,53.9,43.3,92,63,33,30.15,30.00,17,4,20,0.00
2013-2-20,75.0,68.0,63.0,70.2,61.8,53.2,98,82,51,30.06,29.97,20,4,20,0.00
2013-2-21,80.1,71.1,63.1,68.5,61.7,54.0,93,74,43,30.03,29.91,17,5,20,0.00
2013-2-22,84.2,76.1,69.6,73.0,67.3,58.9,97,77,44,30.00,29.91,25,5,25,0.00
2013-2-23,80.6,76.2,73.8,75.8,74.1,72.1,98,93,77,29.94,29.83,26,5,26,0.00
2013-2-24,77.9,74.7,73.6,77.1,73.6,71.7,98,96,88,29.88,29.80,19,2,20,0.00
2013-2-25,84.0,77.9,73.4,74.8,70.5,57.7,98,80,43,29.83,29.71,17,5,20,0.00
2013-2-26,78.4,75.0,70.7,76.9,71.4,63.1,98,89,70,29.83,29.62,26,7,26,0.31
2013-2-27,71.1,67.3,63.0,65.6,53.4,44.2,83,62,43,29.91,29.80,26,7,26,0.00
2013-2-28,72.1,66.7,62.6,58.2,45.8,36.3,73,47,37,29.94,29.85,29,7,29,0.00